This is the latest recevied weather packets stored in our database for station/object KH2PM. If no packets are shown the sender has not sent any weather packets the latest 10 day(s).
| Time | Temp. | Humidity | Pressure | Rain* | Wind** | Luminosity | Snow |
|---|---|---|---|---|---|---|---|
| 1777267806 | 12.22° C | 76% | 1022 hPa | 0 mm | - | - | - |
| 1777266906 | 12.22° C | 75% | 1021.9 hPa | 0 mm | - | - | - |
| 1777264503 | 12.22° C | 75% | 1021.7 hPa | 0 mm | - | - | - |
| 1777264207 | 12.22° C | 75% | 1021.7 hPa | 0 mm | - | - | - |
| 1777263604 | 12.22° C | 75% | 1021.7 hPa | 0 mm | - | - | - |
| 1777262405 | 12.22° C | 75% | 1021.6 hPa | 0 mm | - | - | - |
| 1777261203 | 12.22° C | 76% | 1021.4 hPa | 0 mm | - | - | - |
| 1777259706 | 12.22° C | 76% | 1021.3 hPa | 0 mm | - | - | - |
| 1777257304 | 12.78° C | 75% | 1020.9 hPa | 0 mm | - | - | - |
| 1777256405 | 12.78° C | 76% | 1020.9 hPa | 0 mm | - | - | - |
| 1777254307 | 13.33° C | 76% | 1020.2 hPa | 0 mm | - | - | - |
| 1777252804 | 13.89° C | 76% | 1019.6 hPa | 0 mm | - | - | - |
| 1777248005 | 14.44° C | 75% | 1018.4 hPa | 0 mm | - | - | - |
| 1777244703 | 15.56° C | 73% | 1017.7 hPa | 0 mm | - | - | - |
| 1777241707 | 16.67° C | 73% | 1017.3 hPa | 0 mm | - | - | - |
| 1777239604 | 18.33° C | 66% | 1016.7 hPa | 0 mm | - | - | - |
| 1777238107 | 19.44° C | 63% | 1016.4 hPa | 0 mm | - | - | - |
| 1777236904 | 19.44° C | 64% | 1016.2 hPa | 0 mm | - | - | - |
| 1777234804 | 19.44° C | 66% | 1015.9 hPa | 0 mm | - | - | - |
| 1777234507 | 18.89° C | 67% | 1016 hPa | 0 mm | - | - | - |
| 1777233903 | 18.89° C | 68% | 1016 hPa | 0 mm | - | - | - |
| 1777233303 | 19.44° C | 65% | 1016 hPa | 0 mm | - | - | - |
| 1777232104 | 18.33° C | 72% | 1015.9 hPa | 0.25 mm | - | - | - |
| 1777230006 | 17.22° C | 74% | 1016.2 hPa | 0.25 mm | - | - | - |
| 1777227904 | 16.67° C | 80% | 1016.1 hPa | 0 mm | - | - | - |
* Rain latest hour (hover to see other rain measurements)
** Current wind speed in m/s (hover to see current wind gust speed)